Time;durP1;ratioP1;P1;durP2;ratioP2;P2;SDS_P1;SDS_P2;PMS_P1;PMS_P2;Temp;Humidity;BMP_temperature;BMP_pressure;BME280_temperature;BME280_humidity;BME280_pressure;Samples;Min_cycle;Max_cycle;Signal;HPM_P1;HPM_P2
2021/12/04 00:01:50;;;;;;;10.77;9.35;;;3.00;1.00;;;;;;5079841;28;20212;-53
2021/12/04 00:04:21;;;;;;;12.20;9.70;;;3.00;99.90;;;;;;5067140;28;20810;-51
2021/12/04 00:06:48;;;;;;;9.85;8.85;;;3.00;99.90;;;;;;5087730;28;20639;-49
2021/12/04 00:09:15;;;;;;;11.40;9.07;;;3.10;99.90;;;;;;5076793;28;20236;-57
2021/12/04 00:11:51;;;;;;;9.70;8.80;;;3.00;1.00;;;;;;5067526;28;20662;-53
2021/12/04 00:14:16;;;;;;;11.27;9.10;;;3.00;1.00;;;;;;5068316;28;20181;-51
2021/12/04 00:16:42;;;;;;;10.50;9.50;;;3.10;99.90;;;;;;5066583;28;20207;-48
2021/12/04 00:19:07;;;;;;;10.03;9.03;;;3.00;67.70;;;;;;5071052;28;20190;-53
2021/12/04 00:21:33;;;;;;;10.10;9.10;;;3.00;97.20;;;;;;5072527;28;20208;-49
2021/12/04 00:23:59;;;;;;;13.37;9.40;;;3.00;97.20;;;;;;5074806;28;20229;-54
2021/12/04 00:26:24;;;;;;;11.20;10.10;;;3.10;98.40;;;;;;5088027;28;20180;-52
2021/12/04 00:28:50;;;;;;;10.43;9.20;;;3.10;96.60;;;;;;5071508;28;20220;-48
2021/12/04 00:31:15;;;;;;;11.27;10.17;;;2.90;99.80;;;;;;5067795;28;20186;-49
2021/12/04 00:33:44;;;;;;;10.87;9.43;;;3.00;99.90;;;;;;5066892;28;20233;-53
2021/12/04 00:36:23;;;;;;;11.73;10.20;;;2.90;99.90;;;;;;5068210;28;20174;-47
2021/12/04 00:49:45;;;;;;;10.98;9.82;;;3.00;99.90;;;;;;5068488;28;20223;-52
2021/12/04 00:52:11;;;;;;;10.83;9.60;;;3.00;99.90;;;;;;5069561;28;20190;-51
2021/12/04 00:54:37;;;;;;;12.40;10.23;;;3.00;99.90;;;;;;5048283;28;20229;-54
2021/12/04 00:57:03;;;;;;;11.20;10.05;;;3.00;99.90;;;;;;5067898;28;20224;-52
2021/12/04 00:59:29;;;;;;;11.10;9.50;;;3.00;99.90;;;;;;5076831;28;20220;-50
2021/12/04 01:01:55;;;;;;;11.30;9.70;;;3.00;99.90;;;;;;5083105;28;20455;-53
2021/12/04 01:04:23;;;;;;;11.03;9.93;;;3.00;1.00;;;;;;5080669;28;20200;-54
2021/12/04 01:06:49;;;;;;;10.45;9.30;;;3.00;99.90;;;;;;5072732;28;20445;-53
2021/12/04 01:09:16;;;;;;;11.02;9.82;;;3.00;99.90;;;;;;5071844;28;20189;-54
2021/12/04 01:11:43;;;;;;;11.43;10.23;;;3.00;1.00;;;;;;5072909;28;20184;-48
2021/12/04 01:14:11;;;;;;;11.00;9.50;;;3.00;99.90;;;;;;5075183;28;20823;-53
2021/12/04 01:16:36;;;;;;;10.63;9.50;;;3.00;99.90;;;;;;5057488;28;20614;-50
2021/12/04 01:19:02;;;;;;;10.57;9.47;;;3.10;99.90;;;;;;5069960;28;20261;-53
2021/12/04 01:21:28;;;;;;;10.90;9.80;;;3.10;99.90;;;;;;5071305;28;20876;-51
2021/12/04 01:23:55;;;;;;;11.80;9.77;;;3.10;99.90;;;;;;5069144;28;20228;-55
2021/12/04 01:26:21;;;;;;;10.68;9.35;;;3.10;99.90;;;;;;5070188;28;20202;-49
2021/12/04 01:28:47;;;;;;;10.10;8.85;;;3.00;99.90;;;;;;5074792;28;20185;-50
2021/12/04 01:31:13;;;;;;;13.75;11.07;;;3.00;99.90;;;;;;5086038;28;20633;-51
2021/12/04 01:33:40;;;;;;;10.73;9.40;;;3.00;99.90;;;;;;5073717;28;20189;-52
2021/12/04 01:36:06;;;;;;;16.60;10.35;;;3.10;99.90;;;;;;5071712;28;20196;-49
2021/12/04 01:38:31;;;;;;;13.63;10.70;;;3.10;99.90;;;;;;5077127;28;20215;-51
2021/12/04 01:40:57;;;;;;;12.93;10.20;;;3.10;99.90;;;;;;5073938;28;20194;-49
2021/12/04 01:43:22;;;;;;;10.23;9.23;;;3.20;99.90;;;;;;5083390;28;20675;-51
2021/12/04 01:45:48;;;;;;;9.60;8.80;;;3.10;99.90;;;;;;5078582;28;20181;-51
2021/12/04 01:48:14;;;;;;;10.60;9.50;;;3.10;99.90;;;;;;5072052;28;20189;-55
2021/12/04 01:50:40;;;;;;;10.38;9.27;;;3.10;97.70;;;;;;5070780;28;20268;-52
2021/12/04 01:53:06;;;;;;;10.77;9.67;;;3.10;1.00;;;;;;5070909;28;20216;-48
2021/12/04 01:55:34;;;;;;;8.95;8.13;;;3.10;99.90;;;;;;5070345;28;20189;-50
2021/12/04 01:58:01;;;;;;;12.27;8.93;;;3.10;99.90;;;;;;5069584;28;20193;-52
2021/12/04 02:00:33;;;;;;;9.27;8.38;;;3.10;99.90;;;;;;5079247;28;20181;-49
2021/12/04 02:02:58;;;;;;;10.63;9.52;;;3.10;99.90;;;;;;5077278;28;20205;-53
2021/12/04 02:05:24;;;;;;;9.43;8.40;;;3.10;99.90;;;;;;5071279;28;20178;-48
2021/12/04 02:07:50;;;;;;;9.13;8.30;;;3.10;99.90;;;;;;5077068;28;20185;-52
2021/12/04 02:10:15;;;;;;;9.60;8.60;;;3.20;99.90;;;;;;5068331;28;20178;-54
2021/12/04 02:12:41;;;;;;;8.33;7.57;;;3.20;99.90;;;;;;5071983;28;20600;-49
2021/12/04 02:15:12;;;;;;;9.20;8.40;;;3.20;99.90;;;;;;5077123;28;20189;-51
2021/12/04 02:17:37;;;;;;;9.85;8.85;;;3.20;99.90;;;;;;5071361;28;20205;-50
2021/12/04 02:20:09;;;;;;;9.87;8.87;;;3.20;99.90;;;;;;5082174;28;20273;-51
2021/12/04 02:22:35;;;;;;;9.50;8.60;;;3.20;99.90;;;;;;5074602;28;20233;-52
2021/12/04 02:25:00;;;;;;;9.23;8.43;;;3.20;99.90;;;;;;5078280;28;20177;-50
2021/12/04 02:27:26;;;;;;;10.37;8.80;;;3.10;99.90;;;;;;5072892;28;20548;-50
2021/12/04 02:29:52;;;;;;;10.67;9.67;;;3.10;99.90;;;;;;5069975;28;20628;-50
2021/12/04 02:32:19;;;;;;;10.00;9.00;;;3.10;99.90;;;;;;5071241;28;20188;-48
2021/12/04 02:34:45;;;;;;;11.02;9.80;;;3.10;99.90;;;;;;5073609;28;20186;-50
2021/12/04 02:37:10;;;;;;;10.50;9.07;;;3.10;99.90;;;;;;5069684;28;20509;-53
2021/12/04 02:39:42;;;;;;;10.30;9.30;;;3.10;99.90;;;;;;5069663;28;20217;-50
2021/12/04 02:42:18;;;;;;;11.43;10.23;;;3.10;99.90;;;;;;5067863;28;20197;-50
2021/12/04 02:44:45;;;;;;;10.70;9.60;;;3.00;99.90;;;;;;5067552;28;20177;-55
2021/12/04 02:47:11;;;;;;;11.73;10.32;;;3.00;99.90;;;;;;5069153;28;20173;-51
2021/12/04 02:49:36;;;;;;;10.40;9.37;;;3.00;99.90;;;;;;5068946;28;20631;-53
2021/12/04 02:52:07;;;;;;;11.53;10.40;;;3.00;99.90;;;;;;5069151;28;20189;-50
2021/12/04 02:54:34;;;;;;;11.63;9.95;;;3.00;99.90;;;;;;5065497;28;20181;-48
2021/12/04 02:57:01;;;;;;;10.55;9.50;;;3.00;1.00;;;;;;5066417;28;20251;-49
2021/12/04 02:59:27;;;;;;;11.48;10.32;;;2.90;1.00;;;;;;5068432;28;20512;-52
2021/12/04 03:01:55;;;;;;;12.35;9.40;;;3.00;1.00;;;;;;5049147;28;20208;-49
2021/12/04 03:04:23;;;;;;;11.85;9.48;;;2.90;98.50;;;;;;5068480;28;20192;-53
2021/12/04 03:06:49;;;;;;;10.55;9.40;;;2.90;95.10;;;;;;5067347;28;20180;-56
2021/12/04 03:09:15;;;;;;;9.73;8.83;;;2.90;99.90;;;;;;5069523;28;20540;-50
2021/12/04 03:11:41;;;;;;;11.05;9.95;;;2.90;1.00;;;;;;5068614;28;20208;-50
2021/12/04 03:14:07;;;;;;;10.13;8.60;;;2.90;1.00;;;;;;5069092;28;20217;-48
2021/12/04 03:16:35;;;;;;;10.40;9.30;;;2.90;1.00;;;;;;5068219;28;20438;-52
2021/12/04 03:19:02;;;;;;;10.05;9.02;;;2.90;1.00;;;;;;5069237;28;20181;-48
2021/12/04 03:21:27;;;;;;;9.85;8.75;;;2.80;1.00;;;;;;5068528;28;21194;-50
2021/12/04 03:23:59;;;;;;;10.30;9.30;;;2.80;1.00;;;;;;5068160;28;20251;-50
2021/12/04 03:26:25;;;;;;;9.68;8.65;;;2.90;1.00;;;;;;5069424;28;20491;-51
2021/12/04 03:28:53;;;;;;;11.23;8.80;;;2.90;1.00;;;;;;5067625;28;20189;-51
2021/12/04 03:41:58;;;;;;;9.95;8.93;;;2.90;1.00;;;;;;5068556;28;20561;-50
2021/12/04 03:44:24;;;;;;;11.73;8.63;;;2.90;1.00;;;;;;5066816;28;20854;-52
2021/12/04 03:46:50;;;;;;;13.73;9.37;;;3.00;99.90;;;;;;5068491;28;20188;-49
2021/12/04 03:49:16;;;;;;;10.88;8.50;;;3.00;99.90;;;;;;5067034;28;20269;-54
2021/12/04 03:51:41;;;;;;;10.23;8.60;;;3.00;99.90;;;;;;5049805;28;20280;-50
2021/12/04 03:54:07;;;;;;;9.77;8.77;;;3.00;99.90;;;;;;5065254;28;20197;-50
2021/12/04 03:56:33;;;;;;;8.73;7.83;;;2.90;99.90;;;;;;5067206;28;20202;-51
2021/12/04 03:58:58;;;;;;;10.00;8.97;;;2.90;99.90;;;;;;5081630;28;20200;-53
2021/12/04 04:01:24;;;;;;;9.23;8.33;;;2.90;99.90;;;;;;5056196;28;21126;-52
2021/12/04 04:03:50;;;;;;;10.63;8.37;;;2.80;99.90;;;;;;5068107;28;20189;-52
2021/12/04 04:06:16;;;;;;;10.20;9.20;;;2.90;99.90;;;;;;5080661;28;20188;-50
2021/12/04 04:08:41;;;;;;;10.57;8.40;;;2.90;99.90;;;;;;5079856;28;20181;-51
2021/12/04 04:11:07;;;;;;;9.60;8.67;;;2.90;99.90;;;;;;5072211;28;20884;-51
2021/12/04 04:13:33;;;;;;;9.10;8.30;;;3.00;1.00;;;;;;5066946;28;20554;-53
2021/12/04 04:16:00;;;;;;;9.55;8.65;;;3.00;83.90;;;;;;5081457;28;20481;-54
2021/12/04 04:18:27;;;;;;;9.15;8.35;;;3.00;1.00;;;;;;5069297;28;20181;-49
2021/12/04 04:20:53;;;;;;;9.40;8.50;;;3.00;99.90;;;;;;5088506;28;20629;-54
2021/12/04 04:23:19;;;;;;;9.13;8.30;;;3.00;99.90;;;;;;5078469;28;20268;-52
2021/12/04 04:25:44;;;;;;;9.37;8.33;;;3.00;99.90;;;;;;5074017;28;20198;-50
2021/12/04 04:28:10;;;;;;;10.37;9.33;;;3.10;99.90;;;;;;5089652;28;20219;-52
2021/12/04 04:30:37;;;;;;;9.90;9.00;;;3.10;99.90;;;;;;5077782;28;20644;-49
2021/12/04 04:33:03;;;;;;;9.82;8.82;;;3.00;99.90;;;;;;5074785;28;20181;-51
2021/12/04 04:35:31;;;;;;;9.68;8.68;;;3.00;99.90;;;;;;5072264;28;20186;-55
2021/12/04 04:38:16;;;;;;;10.05;8.32;;;3.00;99.90;;;;;;5072395;28;20679;-49
2021/12/04 04:57:28;;;;;;;9.30;8.40;;;3.10;99.90;;;;;;5069889;28;20181;-52
2021/12/04 05:00:09;;;;;;;8.73;7.65;;;2.50;99.90;;;;;;5081376;28;20926;-52
2021/12/04 05:13:28;;;;;;;11.50;8.00;;;2.30;99.90;;;;;;5070586;28;20218;-50
2021/12/04 05:15:57;;;;;;;11.93;8.87;;;2.20;99.90;;;;;;5076886;28;20213;-53
2021/12/04 05:21:15;;;;;;;12.10;8.30;;;2.30;1.00;;;;;;5074509;28;20190;-52
2021/12/04 05:23:49;;;;;;;11.75;8.60;;;2.20;1.00;;;;;;5071942;28;20225;-48
2021/12/04 05:26:25;;;;;;;11.80;8.23;;;2.10;1.00;;;;;;5081835;28;20185;-51
2021/12/04 05:28:52;;;;;;;10.18;8.32;;;2.10;1.00;;;;;;5072735;28;20219;-49
2021/12/04 05:31:17;;;;;;;12.55;9.30;;;2.10;1.00;;;;;;5090728;28;20170;-49
2021/12/04 05:33:43;;;;;;;12.40;10.33;;;2.10;1.00;;;;;;5062185;28;20209;-51
2021/12/04 05:36:09;;;;;;;12.53;9.93;;;1.90;1.00;;;;;;5078902;28;20655;-54
2021/12/04 05:38:35;;;;;;;12.77;9.63;;;1.90;1.00;;;;;;5074368;28;20466;-53
2021/12/04 05:41:02;;;;;;;14.55;10.27;;;1.80;1.00;;;;;;5069158;28;20439;-52
2021/12/04 05:43:28;;;;;;;14.10;10.30;;;1.80;1.00;;;;;;5074222;28;20239;-52
2021/12/04 05:54:04;;;;;;;17.63;10.82;;;1.60;1.00;;;;;;5010098;28;20217;-47
2021/12/04 05:56:32;;;;;;;18.20;11.23;;;1.60;1.00;;;;;;5070335;28;20185;-50
2021/12/04 05:58:59;;;;;;;14.90;10.82;;;1.50;1.00;;;;;;5070562;28;20182;-47
2021/12/04 06:01:26;;;;;;;15.07;10.60;;;1.50;1.00;;;;;;5078368;28;20631;-50
2021/12/04 06:03:51;;;;;;;16.90;10.90;;;1.50;3.80;;;;;;5071024;28;20178;-51
2021/12/04 06:06:17;;;;;;;16.57;11.20;;;1.30;9.50;;;;;;5069800;28;20231;-51
2021/12/04 06:08:43;;;;;;;17.90;12.57;;;1.30;18.40;;;;;;5071284;28;20431;-52
2021/12/04 06:11:09;;;;;;;16.93;13.20;;;1.40;24.10;;;;;;5075440;28;20439;-51
2021/12/04 06:13:35;;;;;;;16.50;11.47;;;1.30;27.40;;;;;;5071106;28;20231;-50
2021/12/04 06:16:00;;;;;;;17.00;12.40;;;1.30;29.80;;;;;;5069774;28;20950;-48
2021/12/04 06:18:26;;;;;;;18.87;12.80;;;1.30;36.80;;;;;;5073180;28;20447;-49
2021/12/04 06:23:37;;;;;;;17.45;11.18;;;1.30;43.40;;;;;;5062103;28;20309;-47
2021/12/04 06:26:06;;;;;;;18.75;12.85;;;1.20;48.60;;;;;;5075468;28;20601;-53
2021/12/04 06:28:31;;;;;;;17.95;11.90;;;1.30;51.30;;;;;;5073897;28;20261;-50
2021/12/04 06:30:59;;;;;;;16.07;10.63;;;1.30;54.90;;;;;;5073304;28;20256;-51
2021/12/04 06:33:25;;;;;;;18.23;11.48;;;1.30;56.40;;;;;;5081470;28;20517;-49
2021/12/04 06:35:52;;;;;;;15.90;11.23;;;1.30;56.70;;;;;;5074467;28;20193;-49
2021/12/04 06:38:19;;;;;;;15.10;11.50;;;1.30;59.60;;;;;;5068270;28;20726;-52
2021/12/04 06:40:46;;;;;;;17.30;10.75;;;1.30;59.00;;;;;;5068122;28;20188;-52
2021/12/04 06:43:12;;;;;;;12.88;9.77;;;1.30;61.90;;;;;;5070578;28;20231;-53
2021/12/04 06:45:41;;;;;;;17.08;10.65;;;1.30;64.40;;;;;;5070073;28;20170;-51
2021/12/04 06:48:13;;;;;;;13.38;9.50;;;1.20;62.20;;;;;;5070657;28;20608;-52
2021/12/04 06:50:49;;;;;;;12.18;9.35;;;1.30;68.90;;;;;;5057094;28;20217;-53
2021/12/04 06:53:29;;;;;;;13.85;10.48;;;1.30;68.50;;;;;;5068424;28;20181;-47
2021/12/04 06:55:57;;;;;;;11.23;7.95;;;1.30;69.20;;;;;;5073585;28;20188;-49
2021/12/04 06:58:24;;;;;;;11.32;8.48;;;1.20;70.50;;;;;;5068577;28;20271;-50
2021/12/04 07:00:50;;;;;;;10.40;8.90;;;1.30;71.90;;;;;;5076664;28;20671;-49
2021/12/04 07:03:17;;;;;;;13.45;9.00;;;1.30;71.60;;;;;;5070348;28;20567;-54
2021/12/04 07:05:43;;;;;;;11.40;7.80;;;1.30;75.20;;;;;;5074699;28;20615;-51
2021/12/04 07:08:08;;;;;;;14.60;10.03;;;1.30;75.10;;;;;;5085586;28;20199;-50
2021/12/04 07:10:35;;;;;;;14.53;9.80;;;1.30;73.70;;;;;;5064930;28;20186;-52
2021/12/04 07:13:01;;;;;;;13.10;9.40;;;1.30;74.10;;;;;;5081746;28;20200;-47
2021/12/04 07:15:29;;;;;;;14.00;9.80;;;1.30;74.30;;;;;;5070560;28;20192;-51
2021/12/04 07:17:55;;;;;;;15.20;9.60;;;1.30;72.60;;;;;;5068206;28;20215;-53
2021/12/04 07:20:21;;;;;;;12.40;9.10;;;1.30;75.10;;;;;;5067928;28;20605;-51
2021/12/04 07:22:46;;;;;;;13.00;9.80;;;1.20;72.80;;;;;;5066855;28;20820;-51
2021/12/04 07:25:12;;;;;;;12.10;8.90;;;1.30;73.00;;;;;;5062872;28;20547;-52
2021/12/04 07:27:38;;;;;;;14.30;11.83;;;1.20;72.30;;;;;;5052639;28;20173;-49
2021/12/04 07:30:05;;;;;;;22.90;18.00;;;1.20;72.30;;;;;;5071595;28;20207;-54
2021/12/04 07:32:31;;;;;;;14.48;11.57;;;1.20;73.40;;;;;;5067713;28;20196;-51
2021/12/04 07:34:56;;;;;;;10.80;8.80;;;1.20;74.80;;;;;;5060623;28;20194;-50
2021/12/04 07:37:22;;;;;;;15.67;14.00;;;1.30;76.10;;;;;;5067974;28;20194;-54
2021/12/04 07:39:48;;;;;;;10.30;8.00;;;1.30;77.10;;;;;;5064495;28;21213;-52
2021/12/04 07:42:13;;;;;;;10.17;7.83;;;1.30;75.50;;;;;;5062771;28;20805;-54
2021/12/04 07:44:39;;;;;;;11.17;7.67;;;1.30;71.10;;;;;;5074745;28;20192;-51
2021/12/04 07:47:04;;;;;;;11.90;9.37;;;1.20;71.80;;;;;;5077276;28;20181;-54
2021/12/04 07:49:30;;;;;;;12.30;10.13;;;1.20;72.10;;;;;;5068693;28;20184;-51
2021/12/04 07:51:56;;;;;;;13.20;9.00;;;1.20;71.60;;;;;;5074051;28;20200;-51
2021/12/04 07:54:21;;;;;;;12.20;8.90;;;1.30;72.60;;;;;;5074430;28;20181;-54
2021/12/04 07:56:47;;;;;;;11.03;8.13;;;1.30;73.60;;;;;;5068463;28;20181;-55
2021/12/04 07:59:13;;;;;;;11.87;8.20;;;1.40;71.20;;;;;;5061459;28;20273;-54
2021/12/04 08:01:38;;;;;;;11.80;8.00;;;1.30;60.00;;;;;;5070803;28;20647;-54
2021/12/04 08:04:04;;;;;;;10.23;8.17;;;1.30;61.20;;;;;;5078780;28;20618;-54
2021/12/04 08:06:33;;;;;;;10.70;7.97;;;1.40;59.80;;;;;;5062834;28;20182;-52
2021/12/04 08:09:00;;;;;;;10.88;8.55;;;1.50;53.40;;;;;;5063598;28;20428;-53
2021/12/04 08:11:26;;;;;;;13.35;8.73;;;1.50;47.60;;;;;;5071826;28;20180;-58
2021/12/04 08:13:52;;;;;;;10.60;7.55;;;1.50;43.90;;;;;;5067062;28;20196;-52
2021/12/04 08:16:18;;;;;;;10.57;7.88;;;1.50;40.20;;;;;;5069272;28;20169;-54
2021/12/04 08:18:44;;;;;;;9.30;7.32;;;1.50;35.90;;;;;;5066373;28;20224;-54
2021/12/04 08:21:10;;;;;;;9.73;7.13;;;1.50;34.60;;;;;;5067074;28;20269;-56
2021/12/04 08:23:35;;;;;;;9.50;6.97;;;1.50;35.90;;;;;;5061676;28;20259;-55
2021/12/04 08:26:01;;;;;;;8.80;6.97;;;1.50;33.00;;;;;;5066863;28;20189;-52
2021/12/04 08:28:27;;;;;;;8.63;7.10;;;1.60;29.70;;;;;;5065912;28;20229;-53
2021/12/04 08:30:52;;;;;;;7.50;6.00;;;1.60;29.30;;;;;;5062250;28;20530;-49
2021/12/04 08:33:18;;;;;;;9.37;7.57;;;1.60;30.30;;;;;;5061171;28;20519;-53
2021/12/04 08:35:44;;;;;;;9.40;6.53;;;1.50;26.20;;;;;;5064601;28;20186;-54
2021/12/04 08:38:11;;;;;;;10.40;6.87;;;1.70;29.70;;;;;;5046788;28;20185;-52
2021/12/04 08:40:38;;;;;;;8.38;6.68;;;1.70;25.10;;;;;;5068236;28;20235;-53
2021/12/04 08:43:05;;;;;;;8.05;6.07;;;1.70;22.40;;;;;;5067474;28;20299;-55
2021/12/04 08:45:31;;;;;;;7.93;6.20;;;1.60;15.80;;;;;;5068872;28;20262;-50
2021/12/04 08:47:57;;;;;;;7.80;6.70;;;1.70;20.60;;;;;;5060222;28;20208;-50
2021/12/04 08:50:26;;;;;;;7.72;5.40;;;1.70;19.60;;;;;;5067703;28;20251;-51
2021/12/04 08:52:54;;;;;;;8.55;6.40;;;1.70;17.10;;;;;;5059703;28;20213;-51
2021/12/04 08:55:20;;;;;;;8.48;6.25;;;1.70;16.70;;;;;;5067186;28;20186;-53
2021/12/04 08:57:45;;;;;;;8.20;5.70;;;1.70;13.10;;;;;;5066130;28;20190;-50
2021/12/04 09:00:24;;;;;;;6.57;5.50;;;1.70;13.80;;;;;;5067391;28;20184;-53
2021/12/04 09:02:50;;;;;;;6.35;5.30;;;1.70;14.00;;;;;;5065395;28;20615;-54
2021/12/04 09:05:17;;;;;;;6.97;5.22;;;1.70;10.80;;;;;;5071288;28;20178;-51
2021/12/04 09:07:44;;;;;;;7.13;5.18;;;1.70;18.20;;;;;;5069101;28;20185;-52
2021/12/04 09:10:12;;;;;;;6.18;4.75;;;1.70;14.10;;;;;;5065253;28;20571;-51
2021/12/04 09:12:38;;;;;;;5.90;5.05;;;1.70;12.70;;;;;;5068017;28;20173;-50
2021/12/04 09:15:06;;;;;;;7.35;6.07;;;1.70;13.20;;;;;;5066930;28;20290;-51
2021/12/04 09:17:31;;;;;;;7.22;5.10;;;1.70;13.80;;;;;;5068410;28;20182;-52
2021/12/04 09:19:57;;;;;;;5.73;5.23;;;1.80;16.90;;;;;;5069795;28;20192;-53
2021/12/04 09:22:28;;;;;;;7.03;5.13;;;1.90;16.80;;;;;;5069795;28;20290;-50
2021/12/04 09:24:57;;;;;;;6.97;5.28;;;1.90;14.60;;;;;;5070333;28;20177;-51
2021/12/04 10:34:54;;;;;;;5.47;4.88;;;3.30;1.00;;;;;;5073398;28;20176;-50
2021/12/04 10:37:25;;;;;;;5.28;4.78;;;3.60;1.00;;;;;;5082050;28;20212;-53
2021/12/04 10:39:58;;;;;;;4.97;4.55;;;3.90;1.00;;;;;;5071332;28;20200;-49
2021/12/04 10:42:39;;;;;;;5.30;4.80;;;4.10;1.00;;;;;;5075089;28;20197;-51
2021/12/04 10:45:05;;;;;;;7.10;5.20;;;4.20;99.90;;;;;;5081588;28;20234;-50
2021/12/04 10:47:30;;;;;;;5.63;4.97;;;4.30;99.90;;;;;;5069180;28;20268;-53
2021/12/04 10:53:03;;;;;;;5.15;4.53;;;4.50;99.90;;;;;;5069503;28;20178;-52
2021/12/04 11:01:22;;;;;;;4.80;4.40;;;4.80;99.90;;;;;;5066539;28;20589;-50
2021/12/04 11:04:12;;;;;;;5.50;5.00;;;4.90;99.90;;;;;;5072218;28;21138;-56
2021/12/04 11:26:38;;;;;;;4.70;4.30;;;5.40;99.90;;;;;;5031341;28;20179;-53
2021/12/04 11:40:26;;;;;;;5.53;5.00;;;5.10;99.90;;;;;;5033792;28;20217;-52
2021/12/04 11:42:55;;;;;;;5.57;5.03;;;5.00;99.90;;;;;;5024573;28;20209;-53
2021/12/04 11:45:33;;;;;;;5.97;5.10;;;4.70;99.90;;;;;;5026314;28;20201;-51
2021/12/04 11:48:03;;;;;;;5.88;5.13;;;4.40;99.90;;;;;;5022650;28;20189;-51
2021/12/04 11:50:30;;;;;;;6.32;5.57;;;4.30;99.90;;;;;;5036183;28;20214;-51
2021/12/04 11:53:01;;;;;;;7.18;5.30;;;4.20;99.90;;;;;;5031041;28;20274;-50
2021/12/04 11:55:29;;;;;;;6.32;5.40;;;4.20;99.90;;;;;;5031552;28;20179;-51
2021/12/04 11:57:55;;;;;;;6.65;5.40;;;4.20;99.90;;;;;;5027185;28;20195;-52
2021/12/04 12:00:27;;;;;;;6.45;5.60;;;4.20;99.90;;;;;;5029788;28;20309;-54
2021/12/04 12:03:11;;;;;;;7.57;6.15;;;4.00;99.90;;;;;;5032446;28;20357;-52
2021/12/04 12:05:44;;;;;;;9.93;6.80;;;4.10;99.90;;;;;;5027411;28;20177;-49
2021/12/04 12:08:25;;;;;;;8.10;6.03;;;3.90;99.90;;;;;;5023210;28;20182;-48
2021/12/04 12:10:55;;;;;;;7.80;6.60;;;4.10;99.90;;;;;;5023712;28;20182;-49
2021/12/04 12:13:37;;;;;;;8.55;7.07;;;4.20;99.90;;;;;;5024202;28;20186;-51
2021/12/04 12:16:06;;;;;;;8.25;6.40;;;4.60;99.90;;;;;;5024904;28;20183;-49
2021/12/04 12:18:51;;;;;;;9.23;6.78;;;4.80;99.90;;;;;;5021107;28;20183;-48
2021/12/04 12:21:22;;;;;;;6.45;5.78;;;4.90;99.90;;;;;;5018455;28;20179;-51
2021/12/04 12:38:44;;;;;;;8.13;7.15;;;4.90;99.90;;;;;;5068582;28;20193;-52
2021/12/04 12:41:28;;;;;;;7.70;6.90;;;4.80;99.90;;;;;;5071061;28;20247;-47
2021/12/04 12:43:57;;;;;;;7.40;6.60;;;4.60;99.90;;;;;;5071356;28;20205;-52
2021/12/04 12:46:43;;;;;;;9.70;8.27;;;4.40;99.90;;;;;;5070877;28;20232;-52
2021/12/04 12:49:37;;;;;;;8.55;7.05;;;4.30;99.90;;;;;;5071968;28;20224;-48
2021/12/04 12:52:03;;;;;;;9.23;7.82;;;4.40;99.90;;;;;;5068354;28;20642;-50
2021/12/04 12:54:36;;;;;;;9.00;8.00;;;4.40;99.90;;;;;;5070872;28;20185;-49
2021/12/04 12:57:13;;;;;;;10.02;8.52;;;4.50;99.90;;;;;;5071154;28;20655;-51
2021/12/04 13:11:37;;;;;;;10.10;8.18;;;4.40;99.90;;;;;;5064464;28;20267;-56
2021/12/04 13:13:52;;;;;;;8.60;7.70;;;6.40;99.90;;;;;;5064538;28;20995;-53
2021/12/04 13:16:30;;;;;;;9.87;8.83;;;6.80;99.90;;;;;;5066334;28;20798;-52
2021/12/04 13:19:06;;;;;;;9.23;8.33;;;7.00;99.90;;;;;;5072560;28;20471;-50
2021/12/04 13:21:38;;;;;;;9.60;8.70;;;6.90;99.90;;;;;;5060161;28;20493;-52
2021/12/04 13:24:05;;;;;;;9.97;9.07;;;6.90;99.90;;;;;;5057242;28;20478;-53
2021/12/04 13:26:35;;;;;;;9.93;9.00;;;6.80;99.90;;;;;;5063458;28;20527;-51
2021/12/04 13:29:03;;;;;;;9.60;8.60;;;6.40;99.90;;;;;;5062696;28;20438;-52
2021/12/04 13:31:29;;;;;;;10.37;9.30;;;6.00;99.90;;;;;;5072045;28;21380;-49
2021/12/04 13:33:56;;;;;;;9.27;8.33;;;5.80;99.90;;;;;;5065244;28;20443;-52
2021/12/04 13:36:27;;;;;;;9.03;8.13;;;5.70;99.90;;;;;;5065110;28;20196;-52
2021/12/04 13:39:08;;;;;;;8.70;7.80;;;5.60;99.90;;;;;;5072845;28;20933;-52
2021/12/04 13:41:36;;;;;;;8.90;8.00;;;5.40;99.90;;;;;;5067055;28;20190;-50
2021/12/04 13:44:05;;;;;;;8.93;7.50;;;5.40;99.90;;;;;;5063442;28;20463;-50
2021/12/04 13:46:43;;;;;;;9.32;8.32;;;5.30;99.90;;;;;;5078422;28;20643;-51
2021/12/04 13:49:09;;;;;;;8.85;7.95;;;5.10;99.90;;;;;;5074925;28;20185;-50
2021/12/04 13:51:35;;;;;;;8.48;7.68;;;5.00;99.90;;;;;;5062020;28;20257;-52
2021/12/04 13:54:02;;;;;;;12.60;10.20;;;4.70;99.90;;;;;;5076684;28;20201;-49
2021/12/04 13:56:28;;;;;;;9.98;8.50;;;4.80;99.90;;;;;;5078615;28;20955;-48
2021/12/04 13:58:57;;;;;;;16.65;13.40;;;4.70;99.90;;;;;;5065694;28;20197;-54
2021/12/04 14:01:24;;;;;;;12.10;9.68;;;4.60;99.90;;;;;;5048527;28;20212;-50
2021/12/04 14:03:58;;;;;;;11.88;9.70;;;4.40;99.90;;;;;;5075817;28;20205;-49
2021/12/04 14:06:25;;;;;;;11.77;10.15;;;4.40;99.90;;;;;;5080254;28;20587;-53
2021/12/04 14:09:07;;;;;;;11.70;10.48;;;4.40;99.90;;;;;;5071077;28;20639;-56
2021/12/04 14:11:36;;;;;;;11.27;9.50;;;4.10;99.90;;;;;;5071485;28;20188;-51
2021/12/04 14:14:23;;;;;;;9.90;8.85;;;4.10;99.90;;;;;;5079003;28;20208;-53
2021/12/04 14:16:53;;;;;;;15.50;9.70;;;3.90;99.90;;;;;;5072721;28;20215;-55
2021/12/04 14:19:22;;;;;;;11.10;9.55;;;3.70;99.90;;;;;;5073106;28;21015;-55
2021/12/04 14:22:01;;;;;;;12.80;11.38;;;3.70;99.90;;;;;;5063978;28;20280;-56
2021/12/04 14:24:43;;;;;;;12.90;10.75;;;3.60;99.90;;;;;;5066748;28;20237;-52
2021/12/04 14:27:21;;;;;;;18.10;16.23;;;3.40;99.90;;;;;;5069582;28;20924;-49
2021/12/04 14:29:56;;;;;;;12.73;10.02;;;3.30;99.90;;;;;;5063379;28;20197;-52
2021/12/04 14:32:31;;;;;;;11.18;9.10;;;3.10;99.90;;;;;;5058805;28;20191;-52
2021/12/04 14:35:09;;;;;;;14.18;9.68;;;3.10;99.90;;;;;;5062390;28;20184;-57
2021/12/04 14:37:41;;;;;;;14.32;11.05;;;3.00;99.90;;;;;;5063626;28;20185;-55
2021/12/04 14:40:15;;;;;;;10.07;8.50;;;2.90;99.90;;;;;;5061399;28;20177;-53
2021/12/04 14:42:42;;;;;;;14.95;12.75;;;2.80;99.90;;;;;;5063266;28;20204;-49
2021/12/04 14:45:20;;;;;;;12.02;9.40;;;2.70;99.90;;;;;;5075607;28;20195;-56
2021/12/04 14:47:55;;;;;;;12.18;10.32;;;2.60;99.90;;;;;;5061450;28;20193;-55
2021/12/04 14:50:22;;;;;;;12.10;9.73;;;2.50;99.90;;;;;;5063663;28;20288;-53
2021/12/04 14:52:54;;;;;;;13.25;10.15;;;2.40;99.90;;;;;;5064889;28;20186;-52
2021/12/04 14:55:23;;;;;;;11.70;8.60;;;2.30;99.90;;;;;;5061868;28;20733;-54
2021/12/04 14:57:50;;;;;;;13.25;10.13;;;2.20;99.90;;;;;;5062331;28;20545;-54
2021/12/04 15:00:29;;;;;;;12.55;9.80;;;2.20;99.90;;;;;;5067723;28;20196;-57
2021/12/04 15:02:56;;;;;;;14.82;11.15;;;2.10;99.90;;;;;;5072479;28;20707;-54
2021/12/04 15:05:43;;;;;;;12.60;10.07;;;2.10;99.90;;;;;;5068196;28;20207;-54
2021/12/04 15:08:16;;;;;;;12.20;8.90;;;2.10;99.90;;;;;;5059952;28;20216;-52
2021/12/04 15:10:46;;;;;;;13.68;10.15;;;2.00;99.90;;;;;;5064208;28;20177;-52
2021/12/04 15:13:21;;;;;;;14.40;10.63;;;2.00;99.90;;;;;;5073534;28;20193;-54
2021/12/04 15:15:47;;;;;;;12.52;9.73;;;1.90;99.90;;;;;;5070641;28;20215;-55
2021/12/04 15:18:15;;;;;;;12.50;10.07;;;1.90;99.90;;;;;;5061165;28;20430;-54
2021/12/04 15:20:53;;;;;;;15.27;10.20;;;1.90;99.90;;;;;;5067614;28;20184;-51
2021/12/04 15:23:21;;;;;;;16.02;11.35;;;1.90;99.90;;;;;;5059936;28;20233;-52
2021/12/04 15:25:49;;;;;;;15.90;11.05;;;1.80;99.90;;;;;;5073704;28;20169;-57
2021/12/04 15:28:17;;;;;;;13.10;9.75;;;1.80;99.90;;;;;;5063580;28;20178;-54
2021/12/04 15:30:45;;;;;;;16.73;10.95;;;1.80;99.90;;;;;;5066688;28;20178;-56
2021/12/04 15:33:35;;;;;;;14.48;11.48;;;1.80;99.90;;;;;;5067355;28;20274;-54
2021/12/04 15:36:01;;;;;;;15.15;11.75;;;1.80;99.90;;;;;;5073061;28;20200;-52
2021/12/04 15:38:47;;;;;;;16.80;12.80;;;1.80;99.90;;;;;;5072557;28;20289;-57
2021/12/04 15:43:58;;;;;;;17.42;12.00;;;1.80;99.90;;;;;;5067923;28;20216;-52
2021/12/04 15:46:39;;;;;;;14.45;11.38;;;1.80;99.90;;;;;;5061869;28;20177;-55
2021/12/04 15:54:47;;;;;;;15.73;10.80;;;1.80;99.90;;;;;;5078877;28;20183;-51
2021/12/04 15:57:14;;;;;;;14.60;11.20;;;1.80;99.90;;;;;;5066043;28;20169;-53
2021/12/04 15:59:45;;;;;;;15.38;11.43;;;1.70;99.90;;;;;;5068548;28;20177;-50
2021/12/04 16:02:13;;;;;;;17.83;12.07;;;1.70;99.90;;;;;;5058178;28;20205;-52
2021/12/04 16:04:40;;;;;;;15.25;11.05;;;1.70;99.90;;;;;;5059890;28;20255;-54
2021/12/04 16:07:05;;;;;;;15.10;11.45;;;1.80;99.90;;;;;;5067624;28;20264;-52
2021/12/04 16:09:39;;;;;;;14.13;10.07;;;1.80;99.90;;;;;;5065625;28;21699;-53
2021/12/04 16:12:08;;;;;;;16.15;10.93;;;1.80;99.90;;;;;;5072450;28;20434;-54
2021/12/04 16:14:40;;;;;;;16.70;11.55;;;1.80;99.90;;;;;;5075366;28;20177;-55
2021/12/04 16:17:07;;;;;;;15.25;11.30;;;1.80;99.90;;;;;;5076112;28;20192;-56
2021/12/04 16:19:35;;;;;;;18.17;11.90;;;1.80;99.90;;;;;;5073630;28;20185;-55
2021/12/04 16:22:07;;;;;;;15.57;12.20;;;1.90;99.90;;;;;;5076343;28;20225;-53